Sacaton, Arizona
Current Conditions -  °F | °C
As of 10:15 AM on Saturday 25 Oct 2014 (Local Time) from KCGZ Reporting Station
Clear Clear  
Wind Chill: 81°   Ceiling: Unl
Heat Index: 81°   Visibility: 10mi
Dew Point: 48°   Wind: 0mph
Humidity: 32%   Direction: NA
Pressure: 30.05"   Gusts: NA
Location:  33.08°N, 111.75°W
Report Text: KCGZ 251715Z AUTO 00000KT 10SM CLR 27/09 A3005 RMK AO1
Loading
Personal Weather Stations






























Interactive Weather Map
Tropical Storm Tracking
New forecast layout! Learn more

10-Day Weather Forecast

Advertisements
Track Severe Weather on mobile